Terminal Aerodrome Forecast
Issued by NWS Albany, NY

Home | Current Version | Previous Version | Text Only | Print | Product List | Glossary On
Versions: 1 2 3 4 5 6 7 8 9 10 11 12 13 14 15 16 17 18 19 20 21 22 23 24
487
FTUS41 KALY 281120
TAFALB
TAF
KALB 281120Z 2812/2912 00000KT 4SM BR FEW002 OVC090
      TEMPO 2812/2814 1 1/2SM BR BKN002 OVC009
     FM281900 VRB03KT 4SM -SHRA OVC010
     FM290000 30005KT P6SM OVC008=

USA.gov is the U.S. government's official web portal to all federal, state and local government web resources and services.